createdAt,value
2019-04-22T00:02:20.717Z,46.30
2019-04-22T00:05:04.651Z,56.58
2019-04-22T00:07:48.537Z,62.40
2019-04-22T00:10:26.141Z,46.33
2019-04-22T00:13:02.875Z,53.10
2019-04-22T00:15:35.654Z,53.35
2019-04-22T00:18:14.444Z,45.55
2019-04-22T00:20:43.918Z,47.07
2019-04-22T00:23:19.860Z,45.15
2019-04-22T00:25:55.749Z,45.38
2019-04-22T00:28:25.016Z,50.23
2019-04-22T00:31:06.663Z,48.43
2019-04-22T00:33:35.385Z,44.00
2019-04-22T00:36:08.899Z,34.95
2019-04-22T00:38:44.251Z,43.47
2019-04-22T00:41:13.143Z,42.27
2019-04-22T00:43:48.164Z,38.35
2019-04-22T00:46:25.181Z,40.17
2019-04-22T00:49:30.476Z,39.50
2019-04-22T00:51:28.589Z,38.25
2019-04-22T00:54:04.171Z,44.45
2019-04-22T00:56:34.230Z,41.93
2019-04-22T00:59:07.001Z,42.53
2019-04-22T01:01:39.811Z,44.60
2019-04-22T01:04:24.184Z,37.83
2019-04-22T01:06:49.431Z,39.95
2019-04-22T01:09:16.888Z,41.18
2019-04-22T01:11:53.724Z,34.43
2019-04-22T01:14:29.739Z,36.17
2019-04-22T01:17:00.042Z,36.98
2019-04-22T01:19:47.120Z,32.45
2019-04-22T01:22:12.907Z,30.92
2019-04-22T01:24:40.234Z,33.92
2019-04-22T01:27:12.992Z,32.13
2019-04-22T01:29:46.591Z,32.00
2019-04-22T01:32:13.192Z,37.48
2019-04-22T01:34:52.717Z,36.83
2019-04-22T01:37:32.911Z,40.35
2019-04-22T01:40:12.628Z,35.58
2019-04-22T01:42:50.335Z,41.30
2019-04-22T01:45:17.785Z,36.40
2019-04-22T01:47:48.862Z,39.08
2019-04-22T01:53:06.256Z,33.15
2019-04-22T01:55:42.094Z,37.05
2019-04-22T01:57:59.908Z,45.88
2019-04-22T02:00:40.216Z,40.38
2019-04-22T02:03:17.842Z,39.38
2019-04-22T02:05:46.870Z,38.42
2019-04-22T02:08:32.871Z,44.03
2019-04-22T02:10:54.591Z,33.73
2019-04-22T02:13:32.136Z,43.35
2019-04-22T02:16:07.232Z,37.20
2019-04-22T02:21:09.568Z,46.58
2019-04-22T02:26:23.819Z,48.05
2019-04-22T02:28:47.556Z,35.50
2019-04-22T02:39:12.116Z,34.13
2019-04-22T02:44:14.006Z,36.17
2019-04-22T02:47:14.109Z,37.80
2019-04-22T02:49:25.054Z,40.90
2019-04-22T02:52:14.574Z,42.90
2019-04-22T02:57:03.744Z,41.65
2019-04-22T02:59:32.574Z,39.53
2019-04-22T03:02:03.090Z,32.70
2019-04-22T03:04:37.415Z,41.33
2019-04-22T03:07:09.100Z,37.93
2019-04-22T03:09:47.744Z,37.80
2019-04-22T03:12:23.769Z,43.13
2019-04-22T03:17:29.287Z,34.20
2019-04-22T03:22:36.241Z,29.07
2019-04-22T03:25:43.823Z,34.38
2019-04-22T03:27:40.151Z,36.23
2019-04-22T03:35:37.083Z,36.42
2019-04-22T03:48:28.199Z,48.10
2019-04-22T03:51:11.856Z,41.30
2019-04-22T03:53:21.209Z,37.35
2019-04-22T03:55:56.843Z,40.15
2019-04-22T03:58:28.469Z,41.83
2019-04-22T04:04:01.006Z,40.73
2019-04-22T04:06:06.713Z,45.00
2019-04-22T04:11:30.339Z,45.98
2019-04-22T04:21:37.122Z,55.00
2019-04-22T04:24:22.554Z,44.50
2019-04-22T04:29:26.317Z,47.15
2019-04-22T04:34:33.824Z,48.63
2019-04-22T04:37:14.974Z,46.42
2019-04-22T04:39:25.826Z,47.60
2019-04-22T04:42:16.194Z,45.53
2019-04-22T04:44:48.918Z,51.83
2019-04-22T04:47:17.607Z,44.10
2019-04-22T04:49:56.985Z,52.03
2019-04-22T04:54:59.435Z,49.90
2019-04-22T04:57:40.893Z,58.20
2019-04-22T05:00:26.159Z,54.48
2019-04-22T05:05:29.498Z,57.85
2019-04-22T05:07:48.475Z,45.88
2019-04-22T05:10:35.072Z,48.73
2019-04-22T05:15:31.279Z,51.85
2019-04-22T05:20:49.240Z,42.65
2019-04-22T05:23:05.763Z,48.33
2019-04-22T05:25:32.000Z,40.60
2019-04-22T05:28:11.720Z,45.58
2019-04-22T05:30:45.725Z,43.17
2019-04-22T05:33:14.268Z,45.38
2019-04-22T05:35:53.703Z,52.58
2019-04-22T05:38:33.141Z,38.00
2019-04-22T05:40:56.067Z,44.83
2019-04-22T05:43:35.562Z,47.78
2019-04-22T05:46:02.876Z,50.33
2019-04-22T05:51:09.717Z,39.70
2019-04-22T05:53:48.212Z,49.40
2019-04-22T05:56:28.713Z,46.30
2019-04-22T05:58:58.336Z,43.17
2019-04-22T06:06:29.293Z,35.33
2019-04-22T06:09:07.178Z,39.03
2019-04-22T06:11:36.244Z,40.08
2019-04-22T06:14:13.938Z,37.28
2019-04-22T06:16:53.207Z,34.50
2019-04-22T06:19:25.120Z,36.17
2019-04-22T06:22:00.801Z,41.53
2019-04-22T06:24:32.041Z,32.35
2019-04-22T06:29:40.263Z,35.52
2019-04-22T06:32:26.528Z,20.70
2019-04-22T06:34:48.769Z,20.60
2019-04-22T06:37:23.505Z,19.70
2019-04-22T06:39:58.752Z,17.23
2019-04-22T06:45:07.308Z,26.12
2019-04-22T06:50:31.469Z,19.70
2019-04-22T06:52:49.951Z,21.82
2019-04-22T06:55:22.863Z,22.37
2019-04-22T06:57:55.082Z,20.70
2019-04-22T07:00:24.583Z,16.80
2019-04-22T07:03:26.896Z,22.87
2019-04-22T07:05:40.268Z,22.90
2019-04-22T07:08:18.305Z,16.07
2019-04-22T07:10:50.734Z,16.93
2019-04-22T07:13:17.401Z,22.67
2019-04-22T07:15:50.432Z,38.83
2019-04-22T07:20:56.636Z,29.98
2019-04-22T07:23:27.111Z,27.35
2019-04-22T07:26:18.297Z,25.77
2019-04-22T07:28:29.477Z,22.17
2019-04-22T07:31:12.978Z,19.42
2019-04-22T07:33:43.776Z,23.80
2019-04-22T07:36:50.653Z,22.65
2019-04-22T07:38:43.845Z,22.00
2019-04-22T07:41:20.069Z,20.48
2019-04-22T07:46:36.977Z,20.12
2019-04-22T07:49:06.570Z,22.42
2019-04-22T07:51:36.727Z,22.87
2019-04-22T07:54:16.299Z,18.80
2019-04-22T07:56:47.015Z,25.85
2019-04-22T07:59:15.254Z,18.77
2019-04-22T08:02:01.988Z,38.98
2019-04-22T08:07:30.167Z,18.92
2019-04-22T08:09:57.975Z,19.23
2019-04-22T08:12:18.889Z,12.88
2019-04-22T08:14:53.801Z,17.05
2019-04-22T08:22:37.552Z,16.97
2019-04-22T08:25:14.574Z,19.73
2019-04-22T08:27:53.277Z,15.75
2019-04-22T08:30:28.358Z,15.38
2019-04-22T08:33:15.853Z,16.80
2019-04-22T08:35:52.449Z,13.53
2019-04-22T08:38:09.627Z,19.85
2019-04-22T08:40:50.040Z,23.73
2019-04-22T08:43:27.198Z,13.68
2019-04-22T08:45:54.549Z,16.62
2019-04-22T08:48:33.065Z,15.20
2019-04-22T08:51:21.058Z,21.50
2019-04-22T08:54:00.348Z,15.53
2019-04-22T08:56:32.439Z,13.38
2019-04-22T09:01:46.958Z,13.10
2019-04-22T09:04:16.593Z,15.98
2019-04-22T09:09:33.932Z,18.05
2019-04-22T09:12:08.203Z,13.80
2019-04-22T09:14:41.989Z,23.55
2019-04-22T09:17:21.382Z,13.93
2019-04-22T09:19:58.347Z,12.73
2019-04-22T09:22:21.866Z,15.63
2019-04-22T09:25:03.823Z,19.07
2019-04-22T09:27:48.492Z,13.00
2019-04-22T09:30:25.999Z,15.68
2019-04-22T09:32:58.752Z,13.43
2019-04-22T09:35:23.426Z,15.28
2019-04-22T09:38:16.967Z,12.75
2019-04-22T09:40:30.110Z,15.75
2019-04-22T09:43:11.381Z,15.45
2019-04-22T09:45:43.006Z,12.43
2019-04-22T09:50:47.892Z,17.57
2019-04-22T09:53:31.089Z,13.48
2019-04-22T09:55:56.738Z,14.23
2019-04-22T09:58:32.104Z,12.85
2019-04-22T10:01:18.680Z,15.43
2019-04-22T10:03:51.706Z,16.95
2019-04-22T10:06:29.355Z,20.35
2019-04-22T10:11:50.614Z,18.87
2019-04-22T10:14:28.216Z,8.48
2019-04-22T10:17:04.971Z,10.40
2019-04-22T10:19:41.179Z,13.08
2019-04-22T10:24:57.069Z,9.53
2019-04-22T10:27:28.748Z,10.45
2019-04-22T10:30:13.016Z,11.73
2019-04-22T10:32:47.577Z,10.95
2019-04-22T10:35:18.914Z,11.78
2019-04-22T10:37:48.210Z,13.03
2019-04-22T10:40:25.632Z,10.98
2019-04-22T10:42:59.477Z,14.53
2019-04-22T10:45:34.387Z,12.78
2019-04-22T10:48:08.261Z,18.50
2019-04-22T10:50:46.395Z,8.80
2019-04-22T10:53:21.701Z,9.45
2019-04-22T10:55:54.377Z,10.68
2019-04-22T10:58:26.713Z,12.13
2019-04-22T11:01:00.016Z,9.78
2019-04-22T11:03:33.061Z,11.48
2019-04-22T11:06:05.620Z,38.33
2019-04-22T11:08:44.474Z,16.33
2019-04-22T11:11:26.221Z,13.00
2019-04-22T11:13:51.902Z,12.85
2019-04-22T11:16:27.870Z,15.15
2019-04-22T11:19:03.622Z,10.03
2019-04-22T11:21:35.975Z,10.30
2019-04-22T11:24:08.621Z,9.83
2019-04-22T11:26:43.048Z,8.98
2019-04-22T11:29:21.510Z,12.00
2019-04-22T11:32:02.197Z,16.23
2019-04-22T11:34:37.632Z,11.68
2019-04-22T11:37:18.603Z,11.10
2019-04-22T11:42:32.305Z,11.83
2019-04-22T11:45:09.031Z,10.88
2019-04-22T11:47:41.453Z,10.15
2019-04-22T11:50:21.815Z,14.05
2019-04-22T11:52:55.216Z,11.45
2019-04-22T11:55:35.082Z,12.98
2019-04-22T11:58:15.261Z,16.50
2019-04-22T12:00:49.408Z,14.38
2019-04-22T12:03:39.988Z,11.73
2019-04-22T12:06:22.040Z,13.15
2019-04-22T12:08:50.067Z,13.38
2019-04-22T12:11:22.855Z,13.15
2019-04-22T12:14:00.235Z,12.33
2019-04-22T12:16:35.082Z,14.98
2019-04-22T12:19:09.225Z,11.05
2019-04-22T12:21:47.001Z,11.30
2019-04-22T12:24:19.603Z,8.83
2019-04-22T12:26:56.016Z,10.25
2019-04-22T12:29:31.027Z,10.88
2019-04-22T12:32:03.683Z,10.13
2019-04-22T12:34:39.783Z,11.22
2019-04-22T12:37:17.480Z,11.50
2019-04-22T12:39:45.413Z,10.38
2019-04-22T12:42:19.627Z,11.83
2019-04-22T12:45:02.417Z,13.90
2019-04-22T12:47:44.131Z,18.10
2019-04-22T12:50:27.267Z,21.12
2019-04-22T12:52:57.680Z,13.15
2019-04-22T12:55:26.332Z,12.07
2019-04-22T12:58:00.923Z,9.20
2019-04-22T13:00:38.551Z,11.43
2019-04-22T13:03:13.861Z,17.37
2019-04-22T13:08:25.543Z,15.40
2019-04-22T13:11:06.814Z,16.75
2019-04-22T13:13:38.823Z,10.03
2019-04-22T13:16:20.718Z,10.32
2019-04-22T13:19:05.075Z,12.85
2019-04-22T13:21:38.448Z,11.20
2019-04-22T13:24:21.688Z,14.28
2019-04-22T13:27:08.860Z,12.90
2019-04-22T13:30:20.831Z,14.23
2019-04-22T13:32:54.805Z,11.85
2019-04-22T13:38:02.022Z,11.65
2019-04-22T13:40:36.993Z,11.00
2019-04-22T13:43:09.132Z,13.22
2019-04-22T13:45:43.706Z,13.48
2019-04-22T13:48:33.269Z,10.38
2019-04-22T13:51:25.744Z,12.37
2019-04-22T13:54:12.642Z,9.50
2019-04-22T13:58:44.804Z,13.50
2019-04-22T14:01:06.967Z,11.93
2019-04-22T14:03:41.166Z,10.45
2019-04-22T14:06:14.399Z,12.43
2019-04-22T14:08:49.553Z,12.75
2019-04-22T14:11:32.404Z,9.70
2019-04-22T14:13:58.742Z,21.30
2019-04-22T14:16:31.356Z,11.90
2019-04-22T14:19:05.837Z,12.53
2019-04-22T14:21:38.890Z,14.78
2019-04-22T14:24:13.940Z,10.10
2019-04-22T14:26:58.889Z,16.37
2019-04-22T14:29:23.918Z,11.35
2019-04-22T14:34:32.145Z,13.60
2019-04-22T14:37:09.957Z,14.28
2019-04-22T14:39:42.279Z,18.73
2019-04-22T14:44:08.382Z,12.18
2019-04-22T14:45:23.254Z,19.45
2019-04-22T14:50:29.324Z,10.82
2019-04-22T14:53:08.072Z,16.52
2019-04-22T14:55:25.862Z,15.50
2019-04-22T14:57:59.127Z,18.82
2019-04-22T15:00:31.766Z,21.07
2019-04-22T15:03:05.880Z,16.32
2019-04-22T15:05:40.039Z,16.57
2019-04-22T15:08:13.373Z,15.23
2019-04-22T15:10:52.099Z,11.15
2019-04-22T15:13:25.258Z,14.00
2019-04-22T15:16:15.945Z,17.92
2019-04-22T15:18:59.899Z,17.20
2019-04-22T15:21:32.632Z,16.07
2019-04-22T15:24:22.980Z,19.05
2019-04-22T15:26:58.542Z,19.20
2019-04-22T15:29:31.616Z,13.90
2019-04-22T15:32:03.594Z,17.05
2019-04-22T15:34:36.651Z,9.60
2019-04-22T15:37:11.940Z,15.85
2019-04-22T15:39:45.713Z,12.88
2019-04-22T15:42:28.156Z,18.15
2019-04-22T15:44:55.846Z,19.15
2019-04-22T15:47:29.254Z,17.52
2019-04-22T15:50:02.029Z,16.93
2019-04-22T15:52:41.710Z,17.87
2019-04-22T15:55:09.100Z,16.27
2019-04-22T15:57:42.058Z,16.13
2019-04-22T16:00:29.365Z,22.90
2019-04-22T16:02:49.892Z,22.15
2019-04-22T16:05:22.570Z,17.00
2019-04-22T16:07:55.065Z,15.55
2019-04-22T16:10:30.492Z,16.55
2019-04-22T16:13:09.416Z,20.37
2019-04-22T16:15:36.324Z,17.23
2019-04-22T16:18:10.966Z,172.30
2019-04-22T16:21:00.144Z,23.12
2019-04-22T16:24:02.488Z,14.65
2019-04-22T16:26:46.503Z,20.43
2019-04-22T16:29:19.426Z,15.60
2019-04-22T16:31:51.732Z,27.20
2019-04-22T16:34:23.804Z,18.15
2019-04-22T16:36:56.718Z,32.17
2019-04-22T16:39:31.105Z,19.90
2019-04-22T16:42:02.710Z,22.05
2019-04-22T16:44:34.503Z,14.68
2019-04-22T16:47:08.048Z,20.52
2019-04-22T16:49:39.592Z,14.07
2019-04-22T16:52:14.270Z,16.02
2019-04-22T16:54:48.032Z,15.72
2019-04-22T16:57:21.879Z,16.17
2019-04-22T16:59:54.905Z,19.85
2019-04-22T17:02:47.032Z,17.52
2019-04-22T17:05:23.262Z,14.40
2019-04-22T17:07:56.363Z,18.10
2019-04-22T17:10:29.502Z,16.57
2019-04-22T17:13:07.239Z,17.00
2019-04-22T17:15:35.375Z,21.12
2019-04-22T17:18:07.733Z,16.50
2019-04-22T17:20:55.003Z,16.53
2019-04-22T17:23:33.889Z,21.57
2019-04-22T17:26:06.496Z,19.80
2019-04-22T17:28:39.642Z,15.38
2019-04-22T17:31:12.870Z,15.08
2019-04-22T17:33:44.802Z,18.93
2019-04-22T17:36:18.222Z,17.45
2019-04-22T17:39:00.047Z,14.65
2019-04-22T17:41:41.821Z,19.10
2019-04-22T17:44:32.282Z,15.23
2019-04-22T17:46:50.927Z,20.35
2019-04-22T17:49:38.317Z,15.53
2019-04-22T17:52:24.764Z,15.00
2019-04-22T17:57:24.130Z,18.62
2019-04-22T17:59:55.294Z,26.15
2019-04-22T18:02:26.845Z,24.70
2019-04-22T18:04:55.111Z,28.95
2019-04-22T18:07:42.982Z,26.97
2019-04-22T18:13:08.773Z,34.45
2019-04-22T18:15:40.409Z,33.20
2019-04-22T18:18:16.105Z,30.40
2019-04-22T18:20:35.017Z,38.70
2019-04-22T18:26:00.506Z,46.65
2019-04-22T18:28:37.651Z,42.88
2019-04-22T18:31:04.633Z,55.50
2019-04-22T18:33:39.757Z,49.13
2019-04-22T18:36:09.717Z,45.85
2019-04-22T18:38:52.969Z,57.50
2019-04-22T18:41:21.165Z,48.73
2019-04-22T18:44:01.846Z,67.67
2019-04-22T18:46:31.479Z,61.55
2019-04-22T18:49:00.674Z,72.87
2019-04-22T18:51:46.403Z,60.73
2019-04-22T18:54:36.671Z,65.08
2019-04-22T18:57:10.026Z,63.48
2019-04-22T18:59:31.224Z,67.37
2019-04-22T19:02:05.373Z,62.53
2019-04-22T19:04:44.615Z,81.90
2019-04-22T19:07:35.626Z,62.98
2019-04-22T19:10:09.862Z,60.85
2019-04-22T19:13:00.659Z,71.33
2019-04-22T19:15:19.283Z,69.92
2019-04-22T19:18:01.847Z,69.25
2019-04-22T19:20:34.324Z,73.57
2019-04-22T19:23:06.819Z,76.30
2019-04-22T19:25:29.389Z,71.10
2019-04-22T19:28:19.135Z,74.70
2019-04-22T19:30:41.510Z,66.85
2019-04-22T19:33:19.102Z,68.42
2019-04-22T19:35:43.537Z,82.45
2019-04-22T19:38:14.101Z,65.70
2019-04-22T19:43:33.117Z,63.92
2019-04-22T19:46:02.198Z,61.83
2019-04-22T19:48:57.730Z,67.87
2019-04-22T19:51:18.709Z,77.32
2019-04-22T19:53:47.148Z,66.35
2019-04-22T19:56:14.780Z,63.78
2019-04-22T19:58:49.262Z,58.13
2019-04-22T20:01:41.737Z,67.12
2019-04-22T20:04:48.828Z,70.40
2019-04-22T20:07:05.916Z,66.75
2019-04-22T20:09:43.858Z,59.35
2019-04-22T20:12:15.402Z,57.65
2019-04-22T20:14:45.588Z,57.75
2019-04-22T20:17:26.005Z,73.97
2019-04-22T20:20:18.111Z,58.10
2019-04-22T20:22:29.637Z,59.80
2019-04-22T20:24:53.854Z,58.30
2019-04-22T20:27:47.226Z,68.12
2019-04-22T20:30:23.462Z,61.58
2019-04-22T20:35:28.067Z,67.35
2019-04-22T20:38:07.555Z,73.67
2019-04-22T20:40:38.772Z,69.45
2019-04-22T20:43:17.635Z,75.65
2019-04-22T20:45:46.736Z,78.75
2019-04-22T20:48:08.571Z,75.60
2019-04-22T20:50:53.021Z,77.67
2019-04-22T20:53:30.187Z,79.37
2019-04-22T20:56:00.763Z,75.72
2019-04-22T20:58:34.152Z,76.63
2019-04-22T21:01:02.701Z,71.07
2019-04-22T21:03:33.280Z,68.17
2019-04-22T21:06:16.549Z,67.35
2019-04-22T21:08:54.428Z,67.03
2019-04-22T21:11:27.797Z,58.83
2019-04-22T21:14:01.695Z,55.28
2019-04-22T21:16:40.017Z,60.43
2019-04-22T21:19:18.681Z,59.13
2019-04-22T21:21:46.985Z,59.58
2019-04-22T21:24:09.355Z,54.05
2019-04-22T21:26:47.091Z,56.25
2019-04-22T21:29:20.543Z,60.05
2019-04-22T21:32:04.206Z,54.58
2019-04-22T21:34:40.644Z,54.13
2019-04-22T21:37:15.963Z,60.80
2019-04-22T21:39:38.021Z,58.20
2019-04-22T21:42:14.238Z,60.40
2019-04-22T21:44:45.673Z,46.30
2019-04-22T21:47:22.427Z,65.60
2019-04-22T21:50:07.515Z,55.33
2019-04-22T21:55:07.526Z,54.10
2019-04-22T21:57:46.128Z,53.45
2019-04-22T22:00:15.100Z,55.10
2019-04-22T22:02:45.777Z,53.45
2019-04-22T22:05:10.154Z,55.35
2019-04-22T22:07:34.536Z,53.42
2019-04-22T22:10:31.078Z,50.28
2019-04-22T22:13:06.678Z,51.77
2019-04-22T22:15:36.282Z,43.13
2019-04-22T22:18:10.220Z,43.35
2019-04-22T22:21:00.981Z,40.45
2019-04-22T22:23:28.016Z,46.37
2019-04-22T22:25:50.855Z,46.18
2019-04-22T22:28:40.267Z,54.40
2019-04-22T22:31:10.362Z,48.20
2019-04-22T22:33:35.148Z,46.18
2019-04-22T22:36:05.063Z,43.70
2019-04-22T22:38:35.110Z,42.62
2019-04-22T22:40:54.064Z,43.20
2019-04-22T22:43:35.357Z,48.42
2019-04-22T22:46:15.057Z,46.08
2019-04-22T22:49:00.292Z,46.45
2019-04-22T22:51:39.946Z,48.87
2019-04-22T22:56:48.609Z,50.52
2019-04-22T22:59:08.218Z,49.33
2019-04-22T23:01:46.888Z,44.33
2019-04-22T23:04:23.107Z,40.52
2019-04-22T23:06:55.821Z,43.87
2019-04-22T23:09:27.045Z,48.42
2019-04-22T23:14:38.271Z,48.55
2019-04-22T23:16:55.921Z,40.85
2019-04-22T23:19:21.843Z,45.83
2019-04-22T23:21:58.830Z,47.20
2019-04-22T23:24:58.534Z,33.63
2019-04-22T23:27:47.674Z,47.53
2019-04-22T23:30:23.118Z,51.50
2019-04-22T23:33:03.351Z,56.00
2019-04-22T23:35:54.092Z,50.50
2019-04-22T23:38:35.783Z,55.35
2019-04-22T23:41:24.567Z,48.65
2019-04-22T23:43:53.785Z,49.50
2019-04-22T23:46:14.823Z,53.40
2019-04-22T23:49:08.572Z,54.10
2019-04-22T23:51:51.124Z,61.02
2019-04-22T23:54:24.255Z,59.00
2019-04-22T23:59:41.383Z,63.35
